Terminal Aerodrome Forecast
Issued by NWS Portland, OR

Home | Current Version | Previous Version | Text Only | Print | Product List | Glossary On
Versions: 1 2 3 4 5 6 7 8 9 10 11 12 13 14 15 16 17
000
FTUS46 KPQR 011728
TAFSLE
TAF
KSLE 011728Z 0118/0218 19008KT P6SM -SHRA SCT025 OVC050
     FM012200 21005KT P6SM FEW025 BKN050
     FM020400 19003KT P6SM FEW030 SCT050
     FM020900 17003KT 3SM BR FEW002 SCT004 BKN030=

USA.gov is the U.S. government's official web portal to all federal, state and local government web resources and services.